Data for 09/25/2016

Time Sea-Level Adjusted Pressure Absolute Pressure Temperature Relative Humidity Dew Point   
(mb) (inHg) (mb) (inHg) (C) (F) (%) (C) (F)
00:05 1028 30.36 858 25.34 5.4 41.7 65 -0.7 30.7
00:10 1028 30.36 858 25.34 5.3 41.5 65 -0.8 30.6
00:15 1029 30.39 858 25.34 5.2 41.4 65 -0.9 30.4
00:20 1029 30.39 858 25.34 5.3 41.5 64 -0.9 30.4
00:25 1029 30.39 858 25.34 5.3 41.5 65 -0.8 30.5
00:30 1029 30.39 858 25.34 5.1 41.2 66 -0.7 30.7
00:35 1029 30.39 858 25.34 4.9 40.9 66 -0.8 30.5
00:40 1029 30.39 858 25.34 4.9 40.8 66 -0.9 30.4
00:45 1029 30.39 858 25.34 4.9 40.9 66 -0.8 30.5
00:50 1029 30.39 858 25.34 4.9 40.8 67 -0.7 30.7
00:55 1029 30.39 858 25.34 4.9 40.8 67 -0.8 30.5
01:00 1029 30.39 858 25.34 5.1 41.2 64 -1.1 30.1
01:05 1029 30.39 858 25.34 5.2 41.3 65 -0.9 30.4
01:10 1029 30.39 858 25.34 5 41 66 -0.8 30.5
01:15 1029 30.39 858 25.34 5.1 41.1 65 -1.1 30.1
01:20 1029 30.39 858 25.34 4.9 40.8 66 -1 30.2
01:25 1029 30.39 858 25.34 4.9 40.8 66 -0.9 30.3
01:30 1029 30.39 858 25.34 4.7 40.5 67 -1 30.3
01:35 1029 30.39 858 25.34 4.6 40.2 67 -1.1 30.1
01:40 1029 30.39 858 25.34 4.6 40.3 67 -1 30.2
01:45 1029 30.39 858 25.34 4.5 40.1 68 -0.9 30.3
01:50 1029 30.39 858 25.34 4.5 40.1 68 -0.9 30.4
01:55 1029 30.39 858 25.34 4.4 40 68 -0.9 30.4
02:00 1029 30.39 858 25.34 4.4 40 68 -0.9 30.4
02:05 1029 30.39 858 25.34 4.4 39.9 68 -1 30.2
02:10 1029 30.39 858 25.34 4.4 40 67 -1.1 30
02:15 1029 30.39 858 25.34 4.7 40.4 66 -1.1 30
02:20 1029 30.39 859 25.37 4.8 40.7 65 -1.1 30
02:25 1030 30.42 859 25.37 4.9 40.9 64 -1.2 29.8
02:30 1030 30.42 859 25.37 5 41.1 65 -1 30.1
02:35 1030 30.42 859 25.37 4.8 40.7 66 -1.1 30.1
02:40 1030 30.42 859 25.37 4.7 40.5 65 -1.2 29.9
02:45 1030 30.42 859 25.37 4.7 40.5 65 -1.2 29.8
02:50 1030 30.42 859 25.37 4.8 40.6 65 -1.4 29.6
02:55 1030 30.42 859 25.37 4.8 40.7 64 -1.3 29.6
03:00 1030 30.42 859 25.37 5 40.9 64 -1.2 29.8
03:05 1030 30.42 859 25.37 5 40.9 64 -1.2 29.8
03:10 1030 30.42 859 25.37 4.9 40.8 65 -1 30.1
03:15 1030 30.42 859 25.37 4.8 40.6 67 -0.9 30.5
03:20 1030 30.42 859 25.37 4.7 40.5 66 -1.1 30
03:25 1030 30.42 859 25.37 4.7 40.5 66 -1 30.1
03:30 1030 30.42 859 25.37 4.6 40.4 68 -0.8 30.6
03:35 1030 30.42 859 25.37 4.2 39.6 69 -0.9 30.4
03:40 1030 30.42 859 25.37 3.8 38.9 70 -1 30.1
03:45 1030 30.42 859 25.37 3.6 38.4 71 -1.1 30
03:50 1030 30.42 859 25.37 3.6 38.5 71 -1.2 29.8
03:55 1030 30.42 859 25.37 3.7 38.7 71 -1.1 30
04:00 1030 30.42 859 25.37 3.5 38.3 72 -1 30.2
04:05 1030 30.42 859 25.37 3.3 38 73 -1 30.1
04:10 1030 30.42 859 25.37 3.3 38 72 -1.2 29.8
04:15 1030 30.42 859 25.37 3.5 38.3 72 -1.1 30.1
04:20 1030 30.42 859 25.37 3.5 38.2 71 -1.2 29.8
04:25 1030 30.42 859 25.37 3.6 38.4 72 -1.1 30
04:30 1030 30.42 859 25.37 3.3 37.9 73 -1.1 30
04:35 1030 30.42 859 25.37 3.1 37.5 73 -1.2 29.8
04:40 1030 30.42 859 25.37 3.3 37.9 73 -1.2 29.9
04:45 1030 30.42 859 25.37 3.2 37.8 73 -1 30.1
04:50 1030 30.42 859 25.37 3.2 37.7 73 -1.2 29.9
04:55 1030 30.42 859 25.37 3.1 37.6 74 -1.1 30
05:00 1030 30.42 859 25.37 2.9 37.2 75 -1.1 29.9
05:05 1030 30.42 859 25.37 2.7 36.9 76 -1.1 29.9
05:10 1030 30.42 859 25.37 2.6 36.7 76 -1.3 29.7
05:15 1030 30.42 859 25.37 2.9 37.2 73 -1.6 29.2
05:20 1030 30.42 859 25.37 3.1 37.7 74 -1.1 30
05:25 1030 30.42 859 25.37 3.2 37.8 73 -1.2 29.9
05:30 1030 30.42 859 25.37 3.6 38.5 70 -1.4 29.5
05:35 1030 30.42 859 25.37 3.9 39 68 -1.5 29.4
05:40 1030 30.42 859 25.37 3.8 38.8 69 -1.3 29.6
05:45 1030 30.42 860 25.4 3.8 38.9 68 -1.4 29.4
05:50 1031 30.45 860 25.4 3.8 38.8 70 -1.1 30
05:55 1031 30.45 860 25.4 3.2 37.8 72 -1.3 29.6
06:00 1031 30.45 860 25.4 3.1 37.7 73 -1.3 29.6
06:05 1031 30.45 860 25.4 2.8 37.1 74 -1.3 29.7
06:10 1031 30.45 860 25.4 2.7 36.9 75 -1.4 29.5
06:15 1031 30.45 860 25.4 3 37.4 72 -1.7 29
06:20 1031 30.45 860 25.4 3.5 38.2 72 -1.2 29.9
06:25 1031 30.45 860 25.4 3.1 37.6 74 -1.1 30
06:30 1031 30.45 860 25.4 3.1 37.6 73 -1.2 29.8
06:35 1031 30.45 860 25.4 3.1 37.5 74 -1.2 29.9
06:40 1031 30.45 860 25.4 3.1 37.6 72 -1.4 29.4
06:45 1031 30.45 860 25.4 3.3 38 72 -1.2 29.8
06:50 1031 30.45 860 25.4 3.2 37.8 71 -1.5 29.4
06:55 1031 30.45 860 25.4 3.3 37.9 72 -1.2 29.8
07:00 1031 30.45 860 25.4 3.2 37.8 73 -1.2 29.8
07:05 1031 30.45 860 25.4 3.1 37.6 73 -1.4 29.6
07:10 1031 30.45 860 25.4 3 37.4 73 -1.4 29.6
07:15 1031 30.45 860 25.4 3 37.4 73 -1.3 29.7
07:20 1031 30.45 860 25.4 3.1 37.6 73 -1.3 29.7
07:25 1031 30.45 860 25.4 3.2 37.8 72 -1.3 29.6
07:30 1031 30.45 860 25.4 3.3 37.9 72 -1.3 29.7
07:35 1031 30.45 860 25.4 3.3 38 72 -1.3 29.7
07:40 1031 30.45 860 25.4 3.3 38 72 -1.3 29.6
07:45 1031 30.45 860 25.4 3.5 38.2 71 -1.4 29.5
07:50 1031 30.45 860 25.4 3.5 38.2 71 -1.3 29.7
07:55 1031 30.45 860 25.4 3.6 38.5 71 -1.2 29.8
08:00 1031 30.45 860 25.4 3.7 38.7 70 -1.2 29.8
08:05 1031 30.45 860 25.4 3.9 39.1 69 -1.3 29.6
08:10 1031 30.45 860 25.4 4.3 39.7 67 -1.3 29.6
08:15 1031 30.45 860 25.4 4.5 40.1 67 -1.1 30
08:20 1031 30.45 860 25.4 5 40.9 65 -1.1 30
08:25 1031 30.45 860 25.4 5.2 41.3 64 -1.1 30.1
08:30 1031 30.45 860 25.4 5.4 41.7 64 -0.9 30.4
08:35 1031 30.45 860 25.4 5.5 42 63 -0.8 30.5
08:40 1031 30.45 860 25.4 5.7 42.3 63 -0.8 30.6
08:45 1031 30.45 860 25.4 6.2 43.2 61 -0.8 30.5
08:50 1031 30.45 860 25.4 7 44.5 60 -0.3 31.5
08:55 1031 30.45 860 25.4 7.3 45.2 59 -0.2 31.7
09:00 1031 30.45 860 25.4 8.1 46.5 56 -0.1 31.8
09:05 1031 30.45 860 25.4 8.4 47 55 -0.2 31.7
09:10 1031 30.45 860 25.4 8.2 46.7 56 -0.1 31.7
09:15 1031 30.45 860 25.4 8.2 46.8 56 -0 31.9
09:20 1031 30.45 860 25.4 8.5 47.3 55 -0.1 31.9
09:25 1031 30.45 861 25.43 8.5 47.4 54 -0.3 31.5
09:30 1031 30.45 861 25.43 9.2 48.6 52 -0.1 31.7
09:35 1032 30.47 861 25.43 9.7 49.5 51 0.1 32.1
09:40 1032 30.47 861 25.43 9.7 49.5 52 0.3 32.5
09:45 1032 30.47 861 25.43 9.9 49.9 50 -0 32
09:50 1032 30.47 861 25.43 10.1 50.3 51 0.5 32.9
09:55 1032 30.47 861 25.43 9.9 49.7 51 0.3 32.5
10:00 1032 30.47 861 25.43 10.1 50.1 49 -0 32
10:05 1031 30.45 861 25.43 10.2 50.4 49 0.1 32.1
10:10 1031 30.45 861 25.43 10.8 51.4 47 -0 32
10:15 1031 30.45 861 25.43 10.6 51.1 48 0.1 32.2
10:20 1031 30.45 860 25.4 10.9 51.5 46 -0.2 31.7
10:25 1031 30.45 861 25.43 10.7 51.3 47 -0.1 31.9
10:30 1031 30.45 861 25.43 11.1 51.9 44 -0.7 30.7
10:35 1031 30.45 861 25.43 11.4 52.6 44 -0.3 31.5
10:40 1031 30.45 861 25.43 11.9 53.3 42 -0.7 30.8
10:45 1031 30.45 861 25.43 12 53.6 43 -0.1 31.8
10:50 1031 30.45 860 25.4 12 53.7 42 -0.4 31.3
10:55 1031 30.45 860 25.4 12.2 54 42 -0.4 31.4
11:00 1031 30.45 860 25.4 12 53.6 41 -0.8 30.5
11:05 1031 30.45 860 25.4 11.7 53 41 -1.1 30.1
11:10 1031 30.45 860 25.4 12.3 54.1 40 -0.8 30.6
11:15 1031 30.45 861 25.43 12.5 54.5 40 -0.5 31.1
11:20 1031 30.45 860 25.4 11.5 52.8 43 -0.7 30.7
11:25 1031 30.45 860 25.4 12 53.5 40 -1.3 29.7
11:30 1031 30.45 860 25.4 12.8 55 38 -1 30.3
11:35 1031 30.45 860 25.4 12.9 55.1 38 -1.2 29.9
11:40 1031 30.45 860 25.4 11.8 53.2 43 -0.5 31.1
11:45 1031 30.45 860 25.4 11.7 53 40 -1.5 29.3
11:50 1031 30.45 860 25.4 12.1 53.8 39 -1.3 29.6
11:55 1031 30.45 860 25.4 11.7 53 37 -2.3 27.9
12:00 1031 30.45 860 25.4 12.5 54.5 38 -1.4 29.6
12:05 1031 30.45 860 25.4 13.4 56 37 -0.9 30.4
12:10 1031 30.45 860 25.4 13.5 56.3 34 -2.1 28.2
12:15 1031 30.45 860 25.4 13.6 56.5 34 -2.1 28.3
12:20 1031 30.45 860 25.4 13.2 55.7 35 -1.8 28.7
12:25 1030 30.42 860 25.4 13.3 56 32 -2.8 27
12:30 1030 30.42 860 25.4 12.9 55.2 35 -2.1 28.2
12:35 1030 30.42 860 25.4 13.9 57.1 32 -2.5 27.6
12:40 1030 30.42 860 25.4 14.3 57.7 29 -3.3 26.1
12:45 1030 30.42 860 25.4 14.8 58.6 31 -2.2 28.1
12:50 1030 30.42 860 25.4 14.8 58.7 29 -3.1 26.4
12:55 1030 30.42 860 25.4 15.7 60.2 27 -3.1 26.5
13:00 1030 30.42 860 25.4 15.4 59.8 27 -3.3 26
13:05 1030 30.42 859 25.37 16.4 61.4 25 -3.7 25.4
13:10 1030 30.42 859 25.37 16.2 61.1 25 -3.9 25
13:15 1030 30.42 859 25.37 16.1 61 24 -4.4 24.1
13:20 1030 30.42 859 25.37 16.3 61.4 23 -4.6 23.7
13:25 1030 30.42 859 25.37 16.7 62.1 24 -4.1 24.6
13:30 1030 30.42 859 25.37 16.8 62.3 24 -3.9 24.9
13:35 1030 30.42 859 25.37 16.8 62.3 24 -3.6 25.4
13:40 1030 30.42 859 25.37 16.4 61.5 25 -3.5 25.7
13:45 1030 30.42 859 25.37 16.3 61.3 26 -3.4 25.9
13:50 1030 30.42 859 25.37 16.6 61.9 25 -3.3 26
13:55 1030 30.42 859 25.37 17.3 63.2 23 -3.7 25.3
14:00 1030 30.42 859 25.37 17.7 63.8 22 -4 24.7
14:05 1030 30.42 859 25.37 17 62.7 27 -2.2 28.1
14:10 1030 30.42 859 25.37 16.5 61.7 25 -3.3 26
14:15 1030 30.42 859 25.37 17.5 63.6 24 -3.2 26.2
14:20 1030 30.42 859 25.37 17 62.5 26 -2.7 27.1
14:25 1030 30.42 859 25.37 16.3 61.3 27 -2.8 27
14:30 1030 30.42 859 25.37 16.8 62.3 24 -3.7 25.4
14:35 1030 30.42 859 25.37 17.2 63 25 -2.9 26.9
14:40 1029 30.39 859 25.37 17.2 63 26 -2.5 27.5
14:45 1029 30.39 859 25.37 17.9 64.1 25 -2.5 27.4
14:50 1029 30.39 859 25.37 17.7 63.9 24 -2.7 27.1
14:55 1029 30.39 859 25.37 17.4 63.2 26 -2.4 27.7
15:00 1029 30.39 859 25.37 18.1 64.5 24 -2.6 27.3
15:05 1029 30.39 859 25.37 18.3 64.9 25 -2.1 28.3
15:10 1029 30.39 859 25.37 18 64.4 25 -2 28.5
15:15 1029 30.39 859 25.37 17.5 63.6 25 -2.3 27.8
15:20 1029 30.39 859 25.37 17.4 63.4 26 -2.1 28.2
15:25 1029 30.39 859 25.37 17.4 63.2 27 -1.9 28.5
15:30 1029 30.39 859 25.37 17.7 63.9 25 -2.2 28
15:35 1029 30.39 859 25.37 18 64.5 26 -1.9 28.6
15:40 1029 30.39 859 25.37 18.4 65.1 25 -1.9 28.6
15:45 1029 30.39 859 25.37 18.1 64.6 26 -1.6 29.1
15:50 1029 30.39 859 25.37 18.3 65 26 -1.5 29.4
15:55 1029 30.39 859 25.37 18.9 66 25 -1.4 29.5
16:00 1029 30.39 858 25.34 18.7 65.7 26 -1.2 29.9
16:05 1029 30.39 859 25.37 18.3 65 25 -1.8 28.8
16:10 1029 30.39 859 25.37 19 66.1 24 -1.7 29
16:15 1029 30.39 858 25.34 19.1 66.3 25 -1.2 29.9
16:20 1029 30.39 858 25.34 18.5 65.4 26 -1.4 29.4
16:25 1029 30.39 858 25.34 18.8 65.8 26 -0.9 30.3
16:30 1029 30.39 858 25.34 18.6 65.5 26 -1.1 30
16:35 1029 30.39 858 25.34 18 64.3 27 -1.1 30
16:40 1029 30.39 858 25.34 18.6 65.5 26 -1.4 29.5
16:45 1029 30.39 858 25.34 19 66.1 25 -1.3 29.7
16:50 1029 30.39 858 25.34 18.7 65.6 27 -0.4 31.3
16:55 1029 30.39 858 25.34 18.8 65.9 26 -0.9 30.3
17:00 1029 30.39 858 25.34 18.7 65.6 27 -0.7 30.7
17:05 1029 30.39 858 25.34 18.6 65.4 27 -0.6 30.9
17:10 1029 30.39 858 25.34 18.1 64.5 29 -0.2 31.6
17:15 1029 30.39 858 25.34 17.7 63.9 28 -0.6 30.9
17:20 1029 30.39 858 25.34 18 64.3 28 -0.7 30.7
17:25 1029 30.39 858 25.34 18.1 64.6 29 -0.1 31.8
17:30 1029 30.39 858 25.34 17.4 63.3 30 -0.5 31.2
17:35 1029 30.39 858 25.34 17.9 64.3 31 0.6 33.1
17:40 1029 30.39 858 25.34 17.9 64.1 29 -0.1 31.7
17:45 1029 30.39 858 25.34 17.7 63.9 29 -0.3 31.4
17:50 1029 30.39 858 25.34 17.9 64.1 29 -0.4 31.3
17:55 1029 30.39 858 25.34 18 64.4 29 -0.1 31.8
18:00 1029 30.39 858 25.34 17.9 64.3 29 -0.2 31.7
18:05 1029 30.39 858 25.34 17.9 64.2 30 0.3 32.5
18:10 1029 30.39 858 25.34 17.2 63 32 0.5 32.9
18:15 1029 30.39 858 25.34 16.9 62.4 33 0.5 32.9
18:20 1029 30.39 858 25.34 17.2 62.9 33 0.7 33.3
18:25 1029 30.39 858 25.34 17.5 63.5 32 0.6 33.1
18:30 1029 30.39 858 25.34 17.6 63.6 32 0.9 33.6
18:35 1029 30.39 858 25.34 17.2 63 33 0.9 33.6
18:40 1029 30.39 858 25.34 16.9 62.4 34 1.2 34.1
18:45 1029 30.39 858 25.34 16.7 62.1 35 1.4 34.6
18:50 1029 30.39 858 25.34 16.8 62.2 36 1.9 35.5
18:55 1029 30.39 858 25.34 16.5 61.8 38 2.4 36.4
19:00 1029 30.39 858 25.34 16.3 61.4 39 2.3 36.2
19:05 1029 30.39 858 25.34 16.2 61.1 39 2.2 35.9
19:10 1029 30.39 858 25.34 16.2 61.1 38 2.1 35.7
19:15 1029 30.39 858 25.34 16 60.8 38 1.9 35.5
19:20 1029 30.39 858 25.34 16.1 60.9 37 1.4 34.5
19:25 1029 30.39 858 25.34 16.1 60.9 38 1.8 35.3
19:30 1029 30.39 858 25.34 15.8 60.5 39 1.8 35.3
19:35 1029 30.39 858 25.34 15.7 60.2 39 1.8 35.2
19:40 1029 30.39 858 25.34 15.7 60.3 38 1.6 34.9
19:45 1029 30.39 858 25.34 15.8 60.4 38 1.7 35
19:50 1029 30.39 858 25.34 16 60.7 37 1.6 34.8
19:55 1029 30.39 858 25.34 16 60.8 38 2 35.6
20:00 1029 30.39 859 25.37 15.9 60.6 39 2.1 35.8
20:05 1029 30.39 859 25.37 15.8 60.5 40 2.4 36.3
20:10 1029 30.39 859 25.37 15.8 60.4 40 2.5 36.5
20:15 1029 30.39 859 25.37 15.7 60.2 41 2.5 36.5
20:20 1029 30.39 859 25.37 15.5 60 42 2.9 37.2
20:25 1029 30.39 859 25.37 15.3 59.6 43 2.9 37.2
20:30 1029 30.39 859 25.37 15.2 59.3 43 2.9 37.2
20:35 1030 30.42 859 25.37 15.1 59.1 44 2.9 37.2
20:40 1030 30.42 859 25.37 15 59 44 2.9 37.2
20:45 1030 30.42 859 25.37 14.9 58.8 45 3.1 37.5
20:50 1030 30.42 859 25.37 14.7 58.5 45 3 37.5
20:55 1030 30.42 859 25.37 14.6 58.3 46 3.1 37.6
21:00 1030 30.42 859 25.37 14.5 58.1 46 3.1 37.6
21:05 1030 30.42 859 25.37 14.4 58 46 2.9 37.2
21:10 1030 30.42 859 25.37 14.4 57.8 46 3.1 37.6
21:15 1030 30.42 859 25.37 14.2 57.5 47 3.1 37.6
21:20 1030 30.42 859 25.37 14 57.2 47 3 37.4
21:25 1030 30.42 859 25.37 13.9 57 48 3 37.5
21:30 1030 30.42 859 25.37 13.8 56.8 47 2.9 37.2
21:35 1030 30.42 859 25.37 13.6 56.5 49 3.2 37.8
21:40 1030 30.42 859 25.37 13 55.5 53 3.7 38.7
21:45 1030 30.42 859 25.37 12.4 54.3 55 3.7 38.7
21:50 1030 30.42 859 25.37 12.2 53.9 55 3.5 38.4
21:55 1030 30.42 859 25.37 12.3 54.2 53 3.1 37.6
22:00 1030 30.42 859 25.37 12.6 54.7 52 2.9 37.3
22:05 1030 30.42 859 25.37 12.9 55.2 51 3.2 37.7
22:10 1030 30.42 859 25.37 12.8 55 52 3.2 37.7
22:15 1030 30.42 859 25.37 12.9 55.2 50 2.9 37.3
22:20 1030 30.42 859 25.37 13.2 55.7 49 2.8 37
22:25 1030 30.42 859 25.37 13.3 55.9 50 3.1 37.6
22:30 1030 30.42 859 25.37 13.2 55.8 50 3 37.4
22:35 1030 30.42 859 25.37 13.3 56 48 2.5 36.6
22:40 1030 30.42 859 25.37 13.7 56.6 48 2.8 37
22:45 1030 30.42 859 25.37 13.7 56.6 48 2.9 37.2
22:50 1030 30.42 859 25.37 13.6 56.4 48 2.8 37
22:55 1030 30.42 859 25.37 13.6 56.6 46 2.4 36.4
23:00 1030 30.42 859 25.37 13.9 57 47 2.8 37.1
23:05 1030 30.42 859 25.37 13.7 56.6 48 2.8 37.1
23:10 1030 30.42 859 25.37 13.4 56 49 3 37.5
23:15 1030 30.42 859 25.37 13.1 55.5 51 3.2 37.7
23:20 1030 30.42 859 25.37 13.1 55.5 51 3.1 37.6
23:25 1030 30.42 859 25.37 13 55.4 51 3 37.5
23:30 1030 30.42 859 25.37 13.2 55.8 49 2.8 37
23:35 1030 30.42 859 25.37 13.3 55.9 50 3 37.5
23:40 1030 30.42 859 25.37 13.3 56 50 3.1 37.6
23:45 1030 30.42 859 25.37 13.2 55.8 51 3.4 38.1
23:50 1030 30.42 859 25.37 12.8 55 53 3.4 38.2
23:55 1030 30.42 859 25.37 12.4 54.4 54 3.5 38.4
24:00 1030 30.42 859 25.37 12.2 53.9 57 3.9 39